Time;durP1;ratioP1;P1;durP2;ratioP2;P2;SDS_P1;SDS_P2;PMS_P1;PMS_P2;Temp;Humidity;BMP_temperature;BMP_pressure;BME280_temperature;BME280_humidity;BME280_pressure;Samples;Min_cycle;Max_cycle;Signal;HPM_P1;HPM_P2
2021/06/24 00:00:58;;;;;;;2.07;1.97;;;16.20;99.90;;;;;;4977764;28;20922;-88
2021/06/24 00:03:25;;;;;;;2.63;1.90;;;16.20;99.90;;;;;;4991471;28;20193;-90
2021/06/24 00:05:52;;;;;;;2.53;2.33;;;16.20;99.90;;;;;;4991951;28;20447;-89
2021/06/24 00:08:18;;;;;;;2.60;2.40;;;16.10;99.90;;;;;;4991472;28;20455;-88
2021/06/24 00:10:45;;;;;;;2.90;2.70;;;16.10;99.90;;;;;;4993088;28;20455;-89
2021/06/24 00:13:11;;;;;;;2.77;2.40;;;16.10;99.90;;;;;;4996160;28;21366;-88
2021/06/24 00:15:39;;;;;;;2.67;2.20;;;16.10;99.90;;;;;;4974139;28;20448;-88
2021/06/24 00:18:06;;;;;;;2.43;2.23;;;16.10;99.90;;;;;;4989546;28;20512;-88
2021/06/24 00:20:32;;;;;;;2.43;2.00;;;16.20;99.90;;;;;;4973308;28;20581;-89
2021/06/24 00:22:58;;;;;;;2.57;2.37;;;16.10;99.90;;;;;;4977204;28;20507;-88
2021/06/24 00:25:24;;;;;;;2.20;2.00;;;16.10;99.90;;;;;;4977234;28;20578;-87
2021/06/24 00:27:49;;;;;;;2.93;2.70;;;16.10;99.90;;;;;;4977602;28;20192;-89
2021/06/24 00:30:16;;;;;;;2.00;1.90;;;16.00;99.90;;;;;;4977385;28;20867;-89
2021/06/24 00:32:42;;;;;;;4.80;2.13;;;16.00;99.90;;;;;;4973970;28;21459;-89
2021/06/24 00:35:08;;;;;;;2.60;2.40;;;16.00;99.90;;;;;;4977594;28;20662;-89
2021/06/24 00:37:38;;;;;;;3.80;2.10;;;16.00;99.90;;;;;;4987481;28;20194;-89
2021/06/24 00:40:05;;;;;;;3.00;2.80;;;16.00;99.90;;;;;;4988033;28;20948;-88
2021/06/24 00:42:31;;;;;;;2.83;2.33;;;16.10;99.90;;;;;;4991094;28;20452;-89
2021/06/24 00:44:58;;;;;;;2.60;2.40;;;16.10;99.90;;;;;;4973613;28;20442;-88
2021/06/24 00:47:24;;;;;;;2.40;2.30;;;16.00;99.90;;;;;;4973934;28;20447;-88
2021/06/24 00:49:50;;;;;;;2.40;2.10;;;16.10;99.90;;;;;;4990556;28;20567;-89
2021/06/24 00:52:16;;;;;;;2.60;2.40;;;16.10;99.90;;;;;;4973125;28;20941;-88
2021/06/24 00:54:42;;;;;;;2.33;2.13;;;16.10;99.90;;;;;;4974077;28;20193;-89
2021/06/24 00:57:08;;;;;;;3.00;2.67;;;16.10;99.90;;;;;;4975111;28;20459;-90
2021/06/24 00:59:34;;;;;;;2.87;2.10;;;16.10;99.90;;;;;;4972190;28;20220;-90
2021/06/24 01:02:01;;;;;;;2.50;2.07;;;16.20;99.90;;;;;;4990852;28;20618;-89
2021/06/24 01:04:26;;;;;;;2.80;2.47;;;16.20;99.90;;;;;;4972143;28;20847;-89
2021/06/24 01:06:54;;;;;;;1.90;1.80;;;16.20;99.90;;;;;;4975135;28;20460;-89
2021/06/24 01:09:20;;;;;;;2.50;2.30;;;16.20;99.90;;;;;;4989540;28;20518;-89
2021/06/24 01:11:46;;;;;;;2.43;1.80;;;16.20;99.90;;;;;;4991559;28;20268;-90
2021/06/24 01:14:12;;;;;;;2.30;2.10;;;16.20;99.90;;;;;;4976989;28;21146;-90
2021/06/24 01:16:39;;;;;;;2.20;2.07;;;16.30;99.90;;;;;;4974031;28;20542;-90
2021/06/24 01:19:06;;;;;;;2.83;2.40;;;16.20;99.90;;;;;;4974418;28;20456;-89
2021/06/24 01:21:32;;;;;;;2.27;2.17;;;16.20;99.90;;;;;;4974193;28;20539;-90
2021/06/24 01:23:58;;;;;;;2.80;2.10;;;16.20;99.90;;;;;;4971742;28;20447;-90
2021/06/24 01:26:30;;;;;;;2.70;2.50;;;16.20;99.90;;;;;;4987062;28;20451;-89
2021/06/24 01:28:55;;;;;;;2.40;2.20;;;16.20;99.90;;;;;;4987906;28;20983;-90
2021/06/24 01:31:23;;;;;;;2.80;2.50;;;16.10;99.90;;;;;;4989647;28;20521;-90
2021/06/24 01:33:49;;;;;;;3.53;2.63;;;16.00;99.90;;;;;;4969757;28;20372;-90
2021/06/24 01:36:15;;;;;;;3.20;2.60;;;15.90;99.90;;;;;;4975784;28;20996;-90
2021/06/24 01:38:45;;;;;;;2.90;2.70;;;15.80;99.90;;;;;;4991912;28;20460;-90
2021/06/24 01:41:12;;;;;;;5.30;3.10;;;15.70;99.90;;;;;;4988730;28;20457;-90
2021/06/24 01:43:38;;;;;;;3.00;2.80;;;15.70;99.90;;;;;;4975580;28;20550;-90
2021/06/24 01:46:04;;;;;;;3.80;3.03;;;15.70;99.90;;;;;;4989587;28;20455;-90
2021/06/24 01:48:30;;;;;;;3.80;3.40;;;15.70;99.90;;;;;;4976300;28;20464;-89
2021/06/24 01:50:58;;;;;;;3.30;3.00;;;15.70;99.90;;;;;;4989995;28;20352;-89
2021/06/24 01:53:25;;;;;;;3.90;2.60;;;15.70;99.90;;;;;;4974191;28;20538;-89
2021/06/24 01:55:52;;;;;;;2.90;2.70;;;15.70;99.90;;;;;;4968641;28;20457;-90
2021/06/24 01:58:27;;;;;;;2.73;2.53;;;15.70;99.90;;;;;;4972703;28;20451;-90
2021/06/24 02:00:56;;;;;;;3.50;3.23;;;15.70;99.90;;;;;;4972398;28;20578;-90
2021/06/24 02:03:23;;;;;;;3.00;2.80;;;15.60;99.90;;;;;;4988966;28;20460;-90
2021/06/24 02:05:56;;;;;;;3.17;2.90;;;15.60;99.90;;;;;;4990266;28;20448;-90
2021/06/24 02:08:24;;;;;;;3.50;3.30;;;15.60;99.90;;;;;;4975173;28;21123;-89
2021/06/24 02:10:51;;;;;;;3.17;2.70;;;15.60;99.90;;;;;;4992771;28;20524;-90
2021/06/24 02:13:17;;;;;;;3.60;3.07;;;15.60;99.90;;;;;;4975723;28;20456;-90
2021/06/24 02:15:43;;;;;;;3.17;2.97;;;15.50;99.90;;;;;;4973934;28;20438;-90
2021/06/24 02:18:10;;;;;;;3.30;2.80;;;15.60;99.90;;;;;;4971357;28;20451;-90
2021/06/24 02:20:38;;;;;;;6.80;3.37;;;15.70;99.90;;;;;;4974634;28;21008;-89
2021/06/24 02:23:04;;;;;;;3.23;2.93;;;15.60;99.90;;;;;;4975337;28;20521;-90
2021/06/24 02:25:32;;;;;;;4.23;3.83;;;15.60;99.90;;;;;;4972768;28;20452;-89
2021/06/24 02:27:58;;;;;;;4.50;4.10;;;15.50;99.90;;;;;;4972644;28;20538;-90
2021/06/24 02:30:23;;;;;;;4.47;4.10;;;15.50;99.90;;;;;;4971755;28;20993;-90
2021/06/24 02:32:52;;;;;;;4.50;4.10;;;15.40;99.90;;;;;;4972903;28;20205;-89
2021/06/24 02:35:19;;;;;;;4.40;4.10;;;15.40;99.90;;;;;;4986086;28;20217;-89
2021/06/24 02:37:46;;;;;;;4.30;4.00;;;15.40;99.90;;;;;;4969039;28;21241;-90
2021/06/24 02:40:14;;;;;;;6.07;4.37;;;15.40;99.90;;;;;;4974478;28;20466;-90
2021/06/24 02:42:40;;;;;;;5.40;4.60;;;15.30;99.90;;;;;;4985575;28;20483;-89
2021/06/24 02:45:08;;;;;;;5.03;4.63;;;15.30;99.90;;;;;;4972005;28;20456;-90
2021/06/24 02:47:34;;;;;;;3.80;3.50;;;15.30;99.90;;;;;;4972451;28;20440;-91
2021/06/24 02:50:00;;;;;;;4.00;3.70;;;15.20;99.90;;;;;;4991966;28;21035;-91
2021/06/24 02:52:25;;;;;;;3.80;3.10;;;15.20;99.90;;;;;;4974043;28;20440;-91
2021/06/24 02:54:52;;;;;;;3.57;3.27;;;15.20;99.90;;;;;;4973141;28;20201;-91
2021/06/24 02:57:19;;;;;;;3.23;3.03;;;15.20;99.90;;;;;;4993391;28;20203;-91
2021/06/24 02:59:45;;;;;;;3.80;3.33;;;15.20;99.90;;;;;;4989205;28;20460;-92
2021/06/24 03:02:12;;;;;;;3.60;3.30;;;15.20;99.90;;;;;;4974859;28;20463;-90
2021/06/24 03:04:40;;;;;;;3.53;3.23;;;15.10;99.90;;;;;;4988206;28;20461;-91
2021/06/24 03:07:06;;;;;;;3.77;3.43;;;15.10;99.90;;;;;;4976077;28;20470;-91
2021/06/24 03:09:32;;;;;;;3.00;2.77;;;15.10;99.90;;;;;;4974092;28;20492;-91
2021/06/24 03:11:59;;;;;;;2.70;2.50;;;15.20;99.90;;;;;;4973420;28;20685;-92
2021/06/24 03:14:26;;;;;;;3.00;2.80;;;15.20;99.90;;;;;;4974058;28;20208;-91
2021/06/24 03:16:52;;;;;;;3.73;3.40;;;15.20;99.90;;;;;;4988907;28;20483;-90
2021/06/24 03:19:19;;;;;;;3.00;2.80;;;15.30;99.90;;;;;;4991912;28;20578;-90
2021/06/24 03:21:45;;;;;;;3.20;3.00;;;15.30;99.90;;;;;;4974574;28;20192;-90
2021/06/24 03:24:10;;;;;;;3.33;2.90;;;15.30;99.90;;;;;;4987566;28;20466;-90
2021/06/24 03:26:37;;;;;;;3.07;2.87;;;15.40;99.90;;;;;;4972034;28;20444;-91
2021/06/24 03:29:04;;;;;;;3.90;2.87;;;15.40;99.90;;;;;;4972827;28;20255;-91
2021/06/24 03:31:29;;;;;;;3.53;3.20;;;15.60;99.90;;;;;;4974862;28;20444;-90
2021/06/24 03:33:55;;;;;;;3.10;2.80;;;15.60;99.90;;;;;;4976471;28;21050;-91
2021/06/24 03:36:21;;;;;;;3.50;3.20;;;15.60;99.90;;;;;;4986183;28;20184;-90
2021/06/24 03:38:48;;;;;;;2.73;2.53;;;15.70;99.90;;;;;;4987737;28;20946;-90
2021/06/24 03:41:15;;;;;;;3.97;3.20;;;15.70;99.90;;;;;;4971402;28;20785;-92
2021/06/24 03:43:42;;;;;;;3.80;3.30;;;15.70;99.90;;;;;;4989290;28;20452;-92
2021/06/24 03:46:16;;;;;;;2.60;2.40;;;15.70;99.90;;;;;;4975903;28;20978;-93
2021/06/24 03:48:45;;;;;;;7.33;3.27;;;15.70;99.90;;;;;;4979048;28;20451;-93
2021/06/24 03:51:11;;;;;;;3.07;2.87;;;15.60;99.90;;;;;;4972348;28;20671;-93
2021/06/24 03:53:43;;;;;;;3.57;3.27;;;15.60;99.90;;;;;;4992172;28;20529;-94
2021/06/24 03:56:12;;;;;;;3.90;2.97;;;15.70;99.90;;;;;;4977128;28;20662;-93
2021/06/24 03:58:41;;;;;;;3.70;3.37;;;15.80;99.90;;;;;;4971678;28;20201;-93
2021/06/24 04:01:06;;;;;;;3.47;3.17;;;15.90;99.90;;;;;;4978912;28;20455;-93
2021/06/24 04:03:35;;;;;;;6.50;3.40;;;15.90;99.90;;;;;;4978082;28;20829;-92
2021/06/24 04:06:06;;;;;;;2.40;2.23;;;16.00;99.90;;;;;;4979892;28;20206;-91
2021/06/24 04:08:31;;;;;;;3.80;3.50;;;16.10;99.90;;;;;;4998711;28;20482;-93
2021/06/24 04:11:06;;;;;;;6.03;4.80;;;16.20;99.90;;;;;;5002024;28;20466;-92
2021/06/24 04:13:38;;;;;;;4.67;4.37;;;16.20;99.90;;;;;;5016904;28;20188;-93
2021/06/24 04:16:08;;;;;;;5.10;4.30;;;16.30;99.90;;;;;;4989340;28;20552;-93
2021/06/24 04:18:35;;;;;;;4.60;4.30;;;16.30;99.90;;;;;;4975340;28;20553;-94
2021/06/24 04:21:09;;;;;;;4.83;4.33;;;16.40;99.90;;;;;;4993639;28;20468;-92
2021/06/24 04:23:55;;;;;;;3.53;3.30;;;16.40;99.90;;;;;;4975032;28;23757;-92
2021/06/24 04:26:23;;;;;;;4.53;3.90;;;16.20;99.90;;;;;;4975996;28;20466;-93
2021/06/24 04:28:52;;;;;;;4.13;3.83;;;16.20;99.90;;;;;;4988952;28;20483;-92
2021/06/24 04:31:17;;;;;;;3.83;3.57;;;16.30;99.90;;;;;;4966515;28;20542;-92
2021/06/24 04:33:43;;;;;;;3.50;3.20;;;16.30;99.90;;;;;;4987449;28;20587;-92
2021/06/24 04:36:14;;;;;;;3.50;3.20;;;16.30;99.90;;;;;;4974453;28;20211;-91
2021/06/24 04:38:40;;;;;;;2.73;2.53;;;16.30;99.90;;;;;;4992431;28;20197;-91
2021/06/24 04:41:09;;;;;;;2.90;2.70;;;16.30;99.90;;;;;;4994318;28;20726;-92
2021/06/24 04:43:53;;;;;;;3.50;3.20;;;16.20;99.90;;;;;;4977139;28;20561;-92
2021/06/24 04:49:52;;;;;;;3.20;3.00;;;16.30;99.90;;;;;;4964578;28;21018;-91
2021/06/24 04:55:58;;;;;;;3.83;3.07;;;16.60;99.90;;;;;;4956157;28;20475;-91
2021/06/24 04:58:51;;;;;;;3.97;3.57;;;16.80;99.90;;;;;;4960285;28;21016;-92
2021/06/24 05:05:08;;;;;;;3.83;3.53;;;17.00;99.90;;;;;;4983358;28;21028;-92
2021/06/24 05:08:32;;;;;;;3.60;3.30;;;17.00;99.90;;;;;;4984937;28;20456;-91
2021/06/24 05:11:22;;;;;;;4.10;3.80;;;16.90;99.90;;;;;;4972809;28;20479;-91
2021/06/24 05:21:45;;;;;;;;;;;;;;;;;;;;;
2021/06/24 05:28:36;;;;;;;;;;;;;;;;;;;;;
2021/06/24 06:27:37;;;;;;;;;;;;;;;;;;;;;
2021/06/24 06:30:18;;;;;;;3.80;3.50;;;19.30;99.90;;;;;;4974255;28;20495;-89
2021/06/24 06:33:19;;;;;;;4.50;4.10;;;19.60;99.90;;;;;;4953027;28;20571;-89
2021/06/24 06:35:47;;;;;;;4.87;4.30;;;19.80;99.90;;;;;;4970445;28;20459;-88
2021/06/24 06:38:13;;;;;;;4.50;4.17;;;19.60;99.90;;;;;;4954772;28;21056;-88
2021/06/24 06:40:40;;;;;;;4.20;3.90;;;19.60;99.90;;;;;;4955447;28;20433;-88
2021/06/24 06:43:42;;;;;;;4.80;3.90;;;19.60;99.90;;;;;;4954573;28;20864;-88
2021/06/24 06:46:18;;;;;;;4.60;4.20;;;19.70;99.90;;;;;;4972933;28;20968;-88
2021/06/24 06:48:56;;;;;;;3.57;3.37;;;19.70;99.90;;;;;;4958035;28;20510;-88
2021/06/24 06:51:24;;;;;;;4.70;4.40;;;19.50;99.90;;;;;;4957435;28;20449;-88
2021/06/24 06:53:51;;;;;;;5.10;4.70;;;19.50;99.90;;;;;;4956721;28;20500;-87
2021/06/24 06:59:30;;;;;;;5.77;3.70;;;19.60;99.90;;;;;;4938824;28;20976;-87
2021/06/24 07:02:06;;;;;;;4.40;4.10;;;20.00;99.90;;;;;;4975466;28;20452;-87
2021/06/24 07:04:31;;;;;;;4.40;4.00;;;20.10;99.90;;;;;;4951910;28;20459;-87
2021/06/24 07:06:57;;;;;;;4.67;4.27;;;20.00;99.90;;;;;;4974563;28;20448;-87
2021/06/24 07:09:23;;;;;;;5.00;4.60;;;19.80;99.90;;;;;;4959565;28;20249;-87
2021/06/24 07:11:51;;;;;;;4.60;4.30;;;19.70;99.90;;;;;;4957664;28;20595;-87
2021/06/24 07:17:27;;;;;;;4.40;4.10;;;19.90;99.90;;;;;;4974007;28;20606;-87
2021/06/24 07:20:06;;;;;;;4.63;4.33;;;19.90;99.90;;;;;;4975649;28;20493;-87
2021/06/24 07:22:51;;;;;;;3.90;3.70;;;20.20;99.90;;;;;;4956625;28;20453;-87
2021/06/24 07:26:04;;;;;;;5.87;4.20;;;20.60;99.90;;;;;;4972039;28;20584;-88
2021/06/24 07:32:26;;;;;;;5.60;4.83;;;20.70;99.90;;;;;;4963202;28;20457;-88
2021/06/24 07:43:05;;;;;;;;;;;;;;;;;;;;;
2021/06/24 07:46:47;;;;;;;4.83;4.43;;;21.20;99.90;;;;;;4868939;29;21521;-87
2021/06/24 08:10:02;;;;;;;3.97;3.67;;;21.70;99.90;;;;;;4959168;28;20508;-88
2021/06/24 08:12:45;;;;;;;3.87;3.33;;;21.60;99.90;;;;;;4956668;28;20497;-88
2021/06/24 08:15:25;;;;;;;3.23;3.03;;;22.00;99.90;;;;;;4962181;28;20445;-88
2021/06/24 08:17:52;;;;;;;4.60;3.80;;;22.30;99.90;;;;;;4960391;28;20830;-86
2021/06/24 08:20:29;;;;;;;3.43;3.13;;;22.10;99.90;;;;;;4958187;28;20468;-88
2021/06/24 08:22:56;;;;;;;3.17;2.97;;;21.90;99.90;;;;;;4960506;28;20460;-86
2021/06/24 08:25:25;;;;;;;3.17;2.97;;;22.10;99.90;;;;;;4959004;28;20496;-87
2021/06/24 08:28:09;;;;;;;3.67;3.37;;;22.20;99.90;;;;;;4960329;28;20555;-88
2021/06/24 08:31:00;;;;;;;3.50;3.30;;;22.30;99.90;;;;;;4966193;28;20477;-88
2021/06/24 08:33:47;;;;;;;3.07;2.87;;;22.00;99.90;;;;;;4970134;28;20454;-87
2021/06/24 08:36:39;;;;;;;3.60;3.30;;;21.70;99.90;;;;;;4954814;28;21824;-87
2021/06/24 08:39:05;;;;;;;3.40;3.10;;;21.40;99.90;;;;;;4962154;28;20445;-87
2021/06/24 08:41:31;;;;;;;10.90;5.07;;;21.30;99.90;;;;;;4956930;28;20492;-88
2021/06/24 08:43:57;;;;;;;3.70;3.40;;;21.30;99.90;;;;;;4974976;28;20476;-88
2021/06/24 08:46:23;;;;;;;3.77;3.50;;;21.20;99.90;;;;;;4958731;28;20445;-88
2021/06/24 08:48:50;;;;;;;4.07;3.77;;;21.40;99.90;;;;;;4970760;28;22539;-87
2021/06/24 08:56:54;;;;;;;4.10;3.70;;;20.70;99.90;;;;;;5018539;23;20582;-87
2021/06/24 08:59:28;;;;;;;4.90;4.60;;;20.70;99.90;;;;;;4958759;28;20464;-89
2021/06/24 09:02:05;;;;;;;4.83;4.53;;;20.30;99.90;;;;;;4942746;28;20480;-88
2021/06/24 09:05:15;;;;;;;5.10;4.70;;;20.50;99.90;;;;;;4959936;28;20464;-88
2021/06/24 09:08:46;;;;;;;5.00;4.60;;;20.60;99.90;;;;;;4938389;28;20478;-89
2021/06/24 09:11:24;;;;;;;5.03;4.73;;;20.60;99.90;;;;;;4939274;28;21029;-89
2021/06/24 09:14:13;;;;;;;5.20;4.70;;;20.50;99.90;;;;;;4931578;28;20456;-88
2021/06/24 09:16:44;;;;;;;5.87;4.10;;;20.50;99.90;;;;;;4968007;28;20477;-88
2021/06/24 09:19:34;;;;;;;5.17;4.73;;;21.10;99.90;;;;;;4946211;28;20503;-86
2021/06/24 09:22:08;;;;;;;4.87;4.47;;;21.10;99.90;;;;;;4958198;28;20452;-89
2021/06/24 09:24:55;;;;;;;7.30;4.87;;;21.00;99.90;;;;;;4957426;28;20458;-88
2021/06/24 09:27:40;;;;;;;4.57;4.17;;;21.40;99.90;;;;;;4941800;28;20460;-89
2021/06/24 09:30:11;;;;;;;4.20;3.90;;;22.00;99.90;;;;;;4974496;28;21053;-89
2021/06/24 09:32:40;;;;;;;4.23;3.83;;;22.20;99.90;;;;;;4973772;28;20481;-88
2021/06/24 09:35:22;;;;;;;4.67;4.37;;;22.70;99.90;;;;;;4973607;28;20454;-88
2021/06/24 09:38:14;;;;;;;4.37;3.70;;;22.70;99.90;;;;;;4943899;28;20465;-88
2021/06/24 09:40:53;;;;;;;4.97;3.50;;;22.50;99.90;;;;;;4944015;28;20764;-88
2021/06/24 09:43:41;;;;;;;3.13;2.80;;;23.10;99.90;;;;;;4957424;28;20822;-88
2021/06/24 09:49:07;;;;;;;4.23;3.77;;;23.00;99.90;;;;;;4958100;28;20446;-86
2021/06/24 09:51:45;;;;;;;3.37;3.07;;;23.30;99.90;;;;;;4943304;28;20477;-89
2021/06/24 09:54:15;;;;;;;4.07;3.80;;;23.30;99.90;;;;;;4971753;28;20453;-89
2021/06/24 09:56:57;;;;;;;4.10;3.80;;;23.10;99.90;;;;;;4969928;28;20512;-89
2021/06/24 09:59:43;;;;;;;3.90;3.60;;;22.90;99.90;;;;;;4959376;28;20557;-86
2021/06/24 10:02:34;;;;;;;3.97;3.67;;;22.50;99.90;;;;;;4970779;28;20457;-86
2021/06/24 10:05:02;;;;;;;3.50;3.20;;;22.20;99.90;;;;;;4969309;28;20504;-86
2021/06/24 10:07:38;;;;;;;5.00;3.60;;;22.40;99.90;;;;;;4958797;28;20488;-86
2021/06/24 10:10:06;;;;;;;4.43;3.70;;;22.50;99.90;;;;;;4971478;28;20485;-86
2021/06/24 10:12:33;;;;;;;3.10;2.90;;;22.70;99.90;;;;;;4969913;28;22090;-88
2021/06/24 10:14:58;;;;;;;2.83;2.63;;;22.90;99.90;;;;;;4943495;28;20531;-89
2021/06/24 10:17:28;;;;;;;2.80;2.70;;;23.10;99.90;;;;;;4938202;28;20541;-89
2021/06/24 10:20:09;;;;;;;2.53;2.43;;;23.20;99.90;;;;;;4953673;28;20221;-89
2021/06/24 10:23:02;;;;;;;3.13;2.93;;;22.80;99.90;;;;;;4958663;28;21712;-88
2021/06/24 10:25:29;;;;;;;2.97;2.77;;;23.00;99.90;;;;;;4939633;28;20459;-88
2021/06/24 10:27:57;;;;;;;2.30;2.20;;;23.70;99.90;;;;;;4942222;28;20462;-86
2021/06/24 10:30:24;;;;;;;2.80;2.60;;;24.10;99.90;;;;;;4953805;28;20912;-86
2021/06/24 10:33:19;;;;;;;2.53;2.33;;;24.00;99.90;;;;;;4938553;28;20476;-88
2021/06/24 10:35:52;;;;;;;2.60;2.37;;;24.20;99.90;;;;;;4936367;28;20992;-88
2021/06/24 10:38:23;;;;;;;2.50;2.40;;;24.20;99.60;;;;;;4955969;28;20625;-88
2021/06/24 10:41:02;;;;;;;2.27;2.17;;;24.40;99.70;;;;;;4935929;28;20537;-88
2021/06/24 10:44:06;;;;;;;2.60;2.50;;;24.50;99.90;;;;;;4956608;28;20469;-89
2021/06/24 10:49:31;;;;;;;2.80;2.60;;;24.80;99.90;;;;;;4957126;28;20478;-89
2021/06/24 10:52:26;;;;;;;2.60;2.40;;;24.60;98.50;;;;;;4941055;28;20453;-86
2021/06/24 10:54:57;;;;;;;2.93;2.73;;;24.70;99.50;;;;;;4959044;28;21001;-88
2021/06/24 10:57:37;;;;;;;2.80;2.60;;;24.60;98.10;;;;;;4953181;28;20520;-87
2021/06/24 11:00:30;;;;;;;3.87;2.10;;;25.20;97.70;;;;;;4969462;28;20517;-87
2021/06/24 11:02:59;;;;;;;2.13;2.03;;;25.00;97.10;;;;;;4934931;28;20453;-87
2021/06/24 11:05:37;;;;;;;2.33;2.23;;;24.50;97.50;;;;;;4937419;28;20635;-87
2021/06/24 11:08:18;;;;;;;2.60;2.40;;;24.00;98.20;;;;;;4936755;28;20992;-87
2021/06/24 11:10:49;;;;;;;3.43;2.30;;;23.20;99.50;;;;;;4941878;28;21213;-88
2021/06/24 11:13:35;;;;;;;2.80;2.60;;;22.40;99.90;;;;;;4958485;28;20454;-88
2021/06/24 11:16:12;;;;;;;2.53;2.33;;;22.00;99.90;;;;;;4947720;28;20497;-88
2021/06/24 11:18:44;;;;;;;2.10;2.00;;;21.70;99.90;;;;;;4955193;28;20543;-88
2021/06/24 11:21:13;;;;;;;2.57;2.47;;;21.40;99.90;;;;;;4949703;28;20968;-88
2021/06/24 11:23:54;;;;;;;2.43;2.33;;;21.20;99.90;;;;;;4957661;28;20517;-88
2021/06/24 11:26:26;;;;;;;2.80;2.60;;;21.20;99.90;;;;;;4957569;28;20989;-88
2021/06/24 11:29:38;;;;;;;2.60;2.47;;;21.60;99.90;;;;;;4955661;28;20433;-88
2021/06/24 11:32:04;;;;;;;2.50;2.40;;;22.00;99.90;;;;;;4951240;28;20453;-88
2021/06/24 11:37:29;;;;;;;2.20;2.10;;;23.60;99.90;;;;;;4956347;28;20883;-88
2021/06/24 11:39:59;;;;;;;2.30;2.20;;;23.90;99.90;;;;;;4950352;28;20441;-87
2021/06/24 11:42:42;;;;;;;2.10;2.00;;;24.10;99.40;;;;;;4958244;28;20810;-88
2021/06/24 11:45:10;;;;;;;2.07;1.97;;;24.80;99.30;;;;;;4954423;28;20461;-88
2021/06/24 11:47:47;;;;;;;1.80;1.70;;;24.40;98.90;;;;;;4944687;28;20929;-88
2021/06/24 12:03:03;;;;;;;2.27;2.17;;;24.70;98.30;;;;;;4962441;28;21210;-87
2021/06/24 12:04:13;;;;;;;2.43;2.33;;;24.20;97.90;;;;;;4952187;28;20447;-87
2021/06/24 12:07:09;;;;;;;5.30;2.30;;;24.20;98.50;;;;;;4972592;28;20461;-88
2021/06/24 12:09:45;;;;;;;2.33;2.10;;;23.90;97.40;;;;;;4955300;28;20495;-87
2021/06/24 12:12:17;;;;;;;2.47;2.30;;;23.80;98.90;;;;;;4941536;28;20476;-87
2021/06/24 12:14:44;;;;;;;2.17;2.07;;;24.10;99.10;;;;;;4978332;28;20449;-88
2021/06/24 12:17:23;;;;;;;2.60;2.50;;;24.20;98.60;;;;;;4943948;28;20464;-88
2021/06/24 12:20:08;;;;;;;2.50;2.40;;;23.80;99.90;;;;;;4959614;28;20901;-87
2021/06/24 12:22:37;;;;;;;2.17;2.07;;;24.30;98.90;;;;;;4945295;28;20503;-88
2021/06/24 12:25:24;;;;;;;2.17;2.07;;;25.00;97.10;;;;;;4959343;28;20474;-88
2021/06/24 12:27:59;;;;;;;2.33;2.13;;;25.10;96.70;;;;;;4960818;28;21186;-90
2021/06/24 12:30:26;;;;;;;1.90;1.80;;;24.60;97.90;;;;;;4943833;28;20487;-89
2021/06/24 12:32:58;;;;;;;2.33;2.13;;;23.90;98.30;;;;;;4955643;28;20457;-89
2021/06/24 12:35:46;;;;;;;2.00;1.90;;;23.50;99.40;;;;;;4940602;28;20464;-88
2021/06/24 12:38:17;;;;;;;1.73;1.63;;;23.70;99.10;;;;;;4959337;28;21400;-88
2021/06/24 12:40:49;;;;;;;2.00;1.90;;;23.40;97.10;;;;;;4940249;28;20452;-87
2021/06/24 12:43:57;;;;;;;1.50;1.40;;;23.50;97.70;;;;;;4941311;28;20540;-88
2021/06/24 12:47:23;;;;;;;1.67;1.57;;;23.50;97.30;;;;;;4917140;28;20461;-90
2021/06/24 12:49:49;;;;;;;1.90;1.80;;;23.50;98.00;;;;;;4937707;28;20583;-88
2021/06/24 12:53:04;;;;;;;1.97;1.87;;;23.90;97.40;;;;;;4956455;23;20584;-88
2021/06/24 12:55:50;;;;;;;1.93;1.83;;;24.50;97.30;;;;;;4985335;28;20206;-88
2021/06/24 12:58:33;;;;;;;1.40;1.30;;;25.00;94.70;;;;;;4980193;28;20444;-88
2021/06/24 13:01:48;;;;;;;1.67;1.57;;;26.00;94.00;;;;;;4976058;28;20463;-88
2021/06/24 13:04:45;;;;;;;1.30;1.30;;;27.00;92.50;;;;;;4978675;28;20587;-88
2021/06/24 13:07:11;;;;;;;1.40;1.30;;;27.10;91.10;;;;;;4977889;28;20509;-89
2021/06/24 13:09:45;;;;;;;1.30;1.30;;;27.00;90.90;;;;;;4972562;28;21018;-86
2021/06/24 13:12:18;;;;;;;1.40;1.30;;;27.50;90.20;;;;;;4963091;28;20560;-86
2021/06/24 13:15:02;;;;;;;1.10;1.10;;;27.30;90.90;;;;;;4980381;28;20771;-88
2021/06/24 13:17:36;;;;;;;1.40;1.30;;;25.90;90.70;;;;;;4982185;28;20452;-88
2021/06/24 13:20:02;;;;;;;2.03;1.30;;;25.30;92.30;;;;;;4971138;28;23200;-89
2021/06/24 13:22:47;;;;;;;1.40;1.30;;;25.50;92.20;;;;;;4970301;28;20456;-88
2021/06/24 13:25:21;;;;;;;1.40;1.30;;;26.40;91.60;;;;;;4964360;28;20201;-89
2021/06/24 13:27:47;;;;;;;1.30;1.20;;;27.00;91.30;;;;;;4985222;28;20463;-88
2021/06/24 13:30:15;;;;;;;0.97;0.97;;;27.40;90.00;;;;;;4968027;28;21030;-88
2021/06/24 13:32:43;;;;;;;1.20;1.17;;;26.20;90.90;;;;;;4987769;28;20236;-87
2021/06/24 13:35:40;;;;;;;2.20;1.10;;;26.60;91.00;;;;;;4969052;28;20818;-88
2021/06/24 13:38:10;;;;;;;1.30;1.20;;;26.30;90.20;;;;;;4984206;28;20570;-87
2021/06/24 13:40:47;;;;;;;0.90;0.90;;;26.50;87.90;;;;;;4962286;28;20494;-87
2021/06/24 13:43:26;;;;;;;1.10;1.10;;;26.00;90.10;;;;;;4968185;28;20440;-88
2021/06/24 13:46:05;;;;;;;1.10;1.10;;;25.10;90.80;;;;;;4968008;28;21716;-87
2021/06/24 13:51:25;;;;;;;1.23;0.90;;;23.90;92.60;;;;;;4967727;28;20209;-88
2021/06/24 13:54:01;;;;;;;1.33;0.80;;;22.90;91.60;;;;;;4967586;28;20729;-88
2021/06/24 13:56:30;;;;;;;3.30;0.70;;;22.50;91.60;;;;;;4978848;28;20187;-88
2021/06/24 13:59:00;;;;;;;2.50;0.80;;;22.50;90.60;;;;;;4964855;28;20449;-88
2021/06/24 14:01:27;;;;;;;2.50;0.77;;;22.60;90.80;;;;;;4971473;28;20467;-87
2021/06/24 14:03:53;;;;;;;1.23;0.70;;;22.30;90.50;;;;;;4970836;28;20444;-90
2021/06/24 14:06:23;;;;;;;0.70;0.70;;;22.00;91.50;;;;;;4966575;28;21002;-89
2021/06/24 14:08:56;;;;;;;0.57;0.40;;;23.30;91.80;;;;;;4965429;28;21243;-89
2021/06/24 14:11:21;;;;;;;1.20;1.00;;;23.80;89.20;;;;;;4947678;28;20511;-88
2021/06/24 14:13:48;;;;;;;0.70;0.70;;;24.00;90.60;;;;;;4963020;28;20457;-87
2021/06/24 14:16:17;;;;;;;1.80;0.70;;;24.50;89.40;;;;;;4979581;28;20201;-87
2021/06/24 14:18:52;;;;;;;0.63;0.63;;;25.20;86.20;;;;;;4961304;28;20448;-89
2021/06/24 14:21:20;;;;;;;0.67;0.67;;;24.30;88.20;;;;;;4982873;28;20970;-88
2021/06/24 14:23:47;;;;;;;0.97;0.97;;;25.30;87.60;;;;;;4968353;28;20445;-88
2021/06/24 14:26:13;;;;;;;1.20;0.57;;;24.50;86.70;;;;;;4961975;28;20464;-87
2021/06/24 14:29:13;;;;;;;0.70;0.70;;;23.40;90.10;;;;;;4964775;28;20781;-87
2021/06/24 14:32:00;;;;;;;0.67;0.67;;;22.20;92.50;;;;;;4909185;28;20466;-87
2021/06/24 14:34:52;;;;;;;1.40;0.90;;;21.70;94.40;;;;;;4904478;28;20517;-87
2021/06/24 14:37:27;;;;;;;0.80;0.70;;;21.80;95.00;;;;;;4946191;28;20464;-87
2021/06/24 14:40:17;;;;;;;0.97;0.77;;;21.90;95.80;;;;;;4960829;28;20588;-87
2021/06/24 14:42:58;;;;;;;1.00;1.00;;;22.40;95.60;;;;;;4961307;28;20821;-88
2021/06/24 14:45:34;;;;;;;1.83;0.80;;;24.90;94.20;;;;;;4965132;28;20547;-89
2021/06/24 14:48:03;;;;;;;1.20;1.10;;;26.80;90.40;;;;;;4964928;28;20444;-88
2021/06/24 14:50:54;;;;;;;1.00;1.00;;;25.30;92.10;;;;;;4967667;28;21826;-87
2021/06/24 14:53:23;;;;;;;0.93;0.93;;;24.30;94.20;;;;;;4964914;28;20514;-87
2021/06/24 14:55:51;;;;;;;1.40;1.37;;;23.40;95.20;;;;;;4980948;28;20845;-87
2021/06/24 14:58:16;;;;;;;1.27;1.20;;;23.00;96.20;;;;;;4966166;28;20448;-88
2021/06/24 15:00:42;;;;;;;1.30;1.20;;;22.90;96.40;;;;;;4965667;28;20459;-86
2021/06/24 15:03:16;;;;;;;1.10;1.03;;;23.10;96.10;;;;;;4966785;28;20382;-87
2021/06/24 15:06:04;;;;;;;1.43;1.10;;;24.50;95.00;;;;;;4965384;28;21185;-87
2021/06/24 15:08:45;;;;;;;2.50;1.20;;;23.90;94.70;;;;;;4961227;28;20467;-87
2021/06/24 15:11:11;;;;;;;1.40;1.30;;;24.00;95.60;;;;;;4980974;28;20828;-87
2021/06/24 15:13:38;;;;;;;1.73;1.63;;;23.80;95.90;;;;;;4978609;28;20494;-86
2021/06/24 15:16:06;;;;;;;1.40;1.30;;;23.80;96.00;;;;;;4960036;28;20452;-88
2021/06/24 15:18:33;;;;;;;1.63;1.37;;;24.20;95.90;;;;;;4964369;28;21000;-86
2021/06/24 15:21:07;;;;;;;2.90;1.67;;;25.60;94.90;;;;;;4965186;28;21097;-88
2021/06/24 15:23:53;;;;;;;3.27;1.40;;;27.30;92.80;;;;;;4965021;28;20790;-87
2021/06/24 15:26:20;;;;;;;3.43;2.17;;;28.40;91.20;;;;;;4964407;28;20452;-88
2021/06/24 15:28:48;;;;;;;3.20;2.90;;;28.90;90.20;;;;;;4962741;28;20647;-87
2021/06/24 15:31:18;;;;;;;2.40;1.70;;;28.10;91.00;;;;;;4966629;28;20854;-87
2021/06/24 15:33:48;;;;;;;1.37;1.30;;;27.30;91.30;;;;;;4961962;28;20487;-88
2021/06/24 15:36:15;;;;;;;1.27;1.17;;;27.10;91.70;;;;;;4983464;28;20479;-89
2021/06/24 15:41:30;;;;;;;2.33;1.87;;;27.30;91.40;;;;;;4970197;28;20473;-87
2021/06/24 15:44:08;;;;;;;1.83;1.73;;;26.80;91.10;;;;;;4980281;28;20484;-87
2021/06/24 15:46:44;;;;;;;1.87;1.77;;;24.90;93.90;;;;;;4980543;28;21020;-88
2021/06/24 15:49:20;;;;;;;1.90;1.60;;;24.00;96.00;;;;;;4963242;28;20909;-87
2021/06/24 15:54:47;;;;;;;3.20;1.70;;;25.70;93.90;;;;;;4966765;28;20486;-87
2021/06/24 15:57:13;;;;;;;2.70;1.30;;;27.80;92.00;;;;;;4968848;28;20815;-88